< < Back
Terminal Aerodrome Forecast


Current Version              Previous Versions:   1  2  3  4  5  6  7  8  9  

Terminal Aerodrome Forecast

013
FTUS42 KJAX 260000 AAA
TAFSSI
TAF AMD
KSSI 260014Z 2600/2624 04012KT 6SM RA BR FEW007 BKN050
     FM260300 01007KT 5SM BR VCSH BKN010
     FM260900 28010KT 4SM BR VCSH BKN003
     FM261500 28012G25KT P6SM BKN010
     FM261900 29012G20KT P6SM FEW010=

Latest METAR

814
SAUS70 KWBC 260000 RRL
MTRSSI
METAR KSSI 252353Z AUTO 03007KT 7SM -RA SCT011 BKN032 OVC055 17/16 A2997
RMK AO2 SLP148 P0019 60097 T01670161 10178 20167 58001


USA.gov is the U.S. government's official web portal to all federal, state and local government web resources and services.